Coastal 303 — WDE2540 — position and weather

sailwx.info

Track history (hours):
 
Tides and Currents Weather Stations Pressure Air Temp Water Temp Dewpoint Dewpoint Depression Visibility Wind Speed Wind Dir Waves Ship Positions

Coastal 303

Owner: U.S. United Ocean Services, LLC, Tampa, FL. More information available from US FCC via Universal Licensing System and Coast Guard Vessel Documentation Center.

Last reported at 2015-Apr-14 16:26 UTC. Time now 2015-Apr-19 04:37 UTC.
Position N 29°56' W 089°59'.

Length 180 m; draft 8.2 m.

Type: Towing. MMSI: 366751340.

Date/timePositionNaut miles runAvg speedWind from/ knotsBaromVisibWave heightAir tempDewpointWater temp
2015-Apr-14 16:26N 29°56' W 089°59'2 0.4
2015-Apr-14 11:09N 29°57' W 090°01'0 0.0
2015-Apr-14 00:22N 29°57' W 090°01'0 0.0
2015-Apr-13 23:31N 29°57' W 090°01'0 0.0
2015-Apr-13 22:10N 29°57' W 090°01'0 0.0
2015-Apr-13 21:29N 29°57' W 090°01'0 0.0
2015-Apr-13 17:12N 29°57' W 090°01'0 0.0
2015-Apr-13 16:13N 29°57' W 090°01'0 0.0
2015-Apr-13 15:10N 29°57' W 090°01'0 0.0
2015-Apr-13 12:05N 29°57' W 090°01'0 0.0
2015-Apr-13 09:23N 29°57' W 090°01'0 0.0
2015-Apr-13 08:11N 29°57' W 090°01'0 0.0
2015-Apr-13 06:06N 29°57' W 090°01'0 0.0
2015-Apr-13 03:27N 29°57' W 090°01'0 0.0
2015-Apr-13 01:30N 29°57' W 090°01'0 0.0
2015-Apr-13 00:33N 29°57' W 090°01'0 0.0
2015-Apr-12 18:26N 29°57' W 090°01'0 0.0
2015-Apr-12 16:32N 29°57' W 090°01'0 0.0
2015-Apr-12 07:14N 29°57' W 090°01'0 0.0
2015-Apr-12 05:18N 29°57' W 090°01'344 6.7
2015-Apr-10 02:22N 27°47' W 083°58'72 9.2
2015-Apr-09 18:34N 27°39' W 082°37'9 8.7
2015-Apr-09 17:33N 27°46' W 082°31'6 6.2
2015-Apr-09 16:34N 27°48' W 082°25'0 0.4
2015-Apr-09 15:33N 27°48' W 082°25'0 0.0
2015-Apr-09 14:33N 27°48' W 082°25'0 0.0
2015-Apr-09 13:33N 27°48' W 082°25'0 0.0
2015-Apr-09 12:33N 27°48' W 082°25'0 0.1
2015-Apr-09 11:31N 27°48' W 082°25'0 0.0
2015-Apr-09 10:34N 27°48' W 082°25'0 0.0
2015-Apr-09 09:34N 27°48' W 082°25'0 0.0
2015-Apr-09 08:34N 27°48' W 082°25'0 0.0
2015-Apr-09 07:34N 27°48' W 082°25'0 0.0
2015-Apr-09 06:33N 27°48' W 082°25'0 0.0
2015-Apr-09 05:34N 27°48' W 082°25'0 0.0
2015-Apr-09 04:33N 27°48' W 082°25'0 0.0
2015-Apr-09 03:34N 27°48' W 082°25'0 0.0
2015-Apr-09 02:33N 27°48' W 082°25'0 0.0
2015-Apr-09 01:33N 27°48' W 082°25'0 0.0
2015-Apr-09 00:34N 27°48' W 082°25'0 0.0
2015-Apr-08 23:34N 27°48' W 082°25'0 0.0
2015-Apr-08 22:34N 27°48' W 082°25'0 0.0
2015-Apr-08 21:33N 27°48' W 082°25'0 0.0
2015-Apr-08 20:34N 27°48' W 082°25'0 0.0
2015-Apr-08 19:34N 27°48' W 082°25'0 0.0
2015-Apr-08 18:33N 27°48' W 082°25'0 0.0
2015-Apr-08 17:34N 27°48' W 082°25'0 0.0
2015-Apr-08 16:34N 27°48' W 082°25'0 0.0
2015-Apr-08 15:34N 27°48' W 082°25'0 0.0
2015-Apr-08 14:34N 27°48' W 082°25'0 0.0
2015-Apr-08 13:34N 27°48' W 082°25'0 0.0
2015-Apr-08 12:33N 27°48' W 082°25'0 0.0
2015-Apr-08 11:33N 27°48' W 082°25'0 0.0
2015-Apr-08 10:34N 27°48' W 082°25'0 0.0
2015-Apr-08 09:34N 27°48' W 082°25'0 0.0
2015-Apr-08 08:34N 27°48' W 082°25'0 0.0
2015-Apr-08 07:34N 27°48' W 082°25'0 0.0
2015-Apr-08 06:34N 27°48' W 082°25'0 0.0
2015-Apr-08 05:34N 27°48' W 082°25'0 0.0
2015-Apr-08 04:34N 27°48' W 082°25'0 0.0
2015-Apr-08 03:33N 27°48' W 082°25'0 0.0
2015-Apr-08 02:34N 27°48' W 082°25'0 0.0
2015-Apr-08 01:34N 27°48' W 082°25'0 0.0
2015-Apr-08 00:33N 27°48' W 082°25'0 0.1
2015-Apr-07 23:33N 27°48' W 082°25'1 1.1
2015-Apr-07 22:34N 27°49' W 082°26'6 6.1
2015-Apr-07 21:33N 27°45' W 082°31'  
Track history (hours):
 
Tides and Currents Weather Stations Pressure Air Temp Water Temp Dewpoint Dewpoint Depression Visibility Wind Speed Wind Dir Waves Ship Positions

Coastal 303

Owner: U.S. United Ocean Services, LLC, Tampa, FL. More information available from US FCC via Universal Licensing System and Coast Guard Vessel Documentation Center.

Last reported at 2015-Apr-14 16:26 UTC. Time now 2015-Apr-19 04:37 UTC.
Position N 29°56' W 089°59'.

Length 180 m; draft 8.2 m.

Type: Towing. MMSI: 366751340.

Date/timePositionNaut miles runAvg speedWind from/ knotsBaromVisibWave heightAir tempDewpointWater temp
2015-Apr-14 16:26N 29°56' W 089°59'2 0.4
2015-Apr-14 11:09N 29°57' W 090°01'0 0.0
2015-Apr-14 00:22N 29°57' W 090°01'0 0.0
2015-Apr-13 23:31N 29°57' W 090°01'0 0.0
2015-Apr-13 22:10N 29°57' W 090°01'0 0.0
2015-Apr-13 21:29N 29°57' W 090°01'0 0.0
2015-Apr-13 17:12N 29°57' W 090°01'0 0.0
2015-Apr-13 16:13N 29°57' W 090°01'0 0.0
2015-Apr-13 15:10N 29°57' W 090°01'0 0.0
2015-Apr-13 12:05N 29°57' W 090°01'0 0.0
2015-Apr-13 09:23N 29°57' W 090°01'0 0.0
2015-Apr-13 08:11N 29°57' W 090°01'0 0.0
2015-Apr-13 06:06N 29°57' W 090°01'0 0.0
2015-Apr-13 03:27N 29°57' W 090°01'0 0.0
2015-Apr-13 01:30N 29°57' W 090°01'0 0.0
2015-Apr-13 00:33N 29°57' W 090°01'0 0.0
2015-Apr-12 18:26N 29°57' W 090°01'0 0.0
2015-Apr-12 16:32N 29°57' W 090°01'0 0.0
2015-Apr-12 07:14N 29°57' W 090°01'0 0.0
2015-Apr-12 05:18N 29°57' W 090°01'344 6.7
2015-Apr-10 02:22N 27°47' W 083°58'72 9.2
2015-Apr-09 18:34N 27°39' W 082°37'9 8.7
2015-Apr-09 17:33N 27°46' W 082°31'6 6.2
2015-Apr-09 16:34N 27°48' W 082°25'0 0.4
2015-Apr-09 15:33N 27°48' W 082°25'0 0.0
2015-Apr-09 14:33N 27°48' W 082°25'0 0.0
2015-Apr-09 13:33N 27°48' W 082°25'0 0.0
2015-Apr-09 12:33N 27°48' W 082°25'0 0.1
2015-Apr-09 11:31N 27°48' W 082°25'0 0.0
2015-Apr-09 10:34N 27°48' W 082°25'0 0.0
2015-Apr-09 09:34N 27°48' W 082°25'0 0.0
2015-Apr-09 08:34N 27°48' W 082°25'0 0.0
2015-Apr-09 07:34N 27°48' W 082°25'0 0.0
2015-Apr-09 06:33N 27°48' W 082°25'0 0.0
2015-Apr-09 05:34N 27°48' W 082°25'0 0.0
2015-Apr-09 04:33N 27°48' W 082°25'0 0.0
2015-Apr-09 03:34N 27°48' W 082°25'0 0.0
2015-Apr-09 02:33N 27°48' W 082°25'0 0.0
2015-Apr-09 01:33N 27°48' W 082°25'0 0.0
2015-Apr-09 00:34N 27°48' W 082°25'0 0.0
2015-Apr-08 23:34N 27°48' W 082°25'0 0.0
2015-Apr-08 22:34N 27°48' W 082°25'0 0.0
2015-Apr-08 21:33N 27°48' W 082°25'0 0.0
2015-Apr-08 20:34N 27°48' W 082°25'0 0.0
2015-Apr-08 19:34N 27°48' W 082°25'0 0.0
2015-Apr-08 18:33N 27°48' W 082°25'0 0.0
2015-Apr-08 17:34N 27°48' W 082°25'0 0.0
2015-Apr-08 16:34N 27°48' W 082°25'0 0.0
2015-Apr-08 15:34N 27°48' W 082°25'0 0.0
2015-Apr-08 14:34N 27°48' W 082°25'0 0.0
2015-Apr-08 13:34N 27°48' W 082°25'0 0.0
2015-Apr-08 12:33N 27°48' W 082°25'0 0.0
2015-Apr-08 11:33N 27°48' W 082°25'0 0.0
2015-Apr-08 10:34N 27°48' W 082°25'0 0.0
2015-Apr-08 09:34N 27°48' W 082°25'0 0.0
2015-Apr-08 08:34N 27°48' W 082°25'0 0.0
2015-Apr-08 07:34N 27°48' W 082°25'0 0.0
2015-Apr-08 06:34N 27°48' W 082°25'0 0.0
2015-Apr-08 05:34N 27°48' W 082°25'0 0.0
2015-Apr-08 04:34N 27°48' W 082°25'0 0.0
2015-Apr-08 03:33N 27°48' W 082°25'0 0.0
2015-Apr-08 02:34N 27°48' W 082°25'0 0.0
2015-Apr-08 01:34N 27°48' W 082°25'0 0.0
2015-Apr-08 00:33N 27°48' W 082°25'0 0.1
2015-Apr-07 23:33N 27°48' W 082°25'1 1.1
2015-Apr-07 22:34N 27°49' W 082°26'6 6.1
2015-Apr-07 21:33N 27°45' W 082°31'  

Dump ship's entire track history